Terminal Aerodrome Forecast
Issued by NWS

Home | Current Version | Previous Version | Text Only | Print | Product List | Glossary On
Versions: 1 2 3 4 5 6 7 8 9 10 11 12 13
000
FTUS42 KTBW 120521
TAFPGD
TAF
KPGD 120521Z 1206/1306 00000KT P6SM SKC
     FM121600 24007KT P6SM FEW035 SCT250
     FM121800 27012G20KT P6SM SCT035 BKN250
     FM130000 30010KT P6SM FEW250
     FM130500 34006KT P6SM SCT250=

USA.gov is the U.S. government's official web portal to all federal, state and local government web resources and services.